Time;durP1;ratioP1;P1;durP2;ratioP2;P2;SDS_P1;SDS_P2;PMS_P1;PMS_P2;Temp;Humidity;BMP_temperature;BMP_pressure;BME280_temperature;BME280_humidity;BME280_pressure;Samples;Min_cycle;Max_cycle;Signal;HPM_P1;HPM_P2
2023/03/06 00:00:29;;;;;;;4.40;4.00;;;1.60;99.90;;;;;;5045294;28;20426;-69
2023/03/06 00:02:56;;;;;;;6.30;4.17;;;1.60;99.90;;;;;;5043322;28;20440;-68
2023/03/06 00:05:22;;;;;;;5.53;4.07;;;1.50;99.90;;;;;;5045096;28;20513;-68
2023/03/06 00:07:48;;;;;;;5.00;4.50;;;1.50;99.90;;;;;;5046741;28;20484;-68
2023/03/06 00:10:22;;;;;;;6.37;5.30;;;1.50;99.90;;;;;;5035420;28;21049;-68
2023/03/06 00:12:49;;;;;;;5.23;4.37;;;1.40;99.90;;;;;;5045636;28;21015;-69
2023/03/06 00:15:15;;;;;;;5.43;4.20;;;1.50;99.90;;;;;;5043567;28;20785;-70
2023/03/06 00:17:40;;;;;;;4.80;4.30;;;1.50;99.90;;;;;;5045385;28;20461;-67
2023/03/06 00:20:07;;;;;;;6.30;4.70;;;1.60;99.90;;;;;;5044964;28;20226;-68
2023/03/06 00:22:33;;;;;;;10.57;4.37;;;1.50;99.90;;;;;;5034479;28;20179;-67
2023/03/06 00:24:59;;;;;;;6.67;5.10;;;1.50;99.90;;;;;;5045351;28;20424;-68
2023/03/06 00:27:25;;;;;;;9.10;4.83;;;1.50;99.90;;;;;;5044186;28;20182;-68
2023/03/06 00:29:55;;;;;;;9.53;5.43;;;1.50;99.90;;;;;;5045477;28;20715;-67
2023/03/06 00:32:21;;;;;;;6.83;4.70;;;1.50;99.90;;;;;;5045040;28;20430;-67
2023/03/06 00:34:51;;;;;;;6.13;4.73;;;1.50;99.90;;;;;;5027360;28;20507;-67
2023/03/06 00:37:17;;;;;;;9.90;4.97;;;1.40;99.90;;;;;;5043048;28;20221;-69
2023/03/06 00:39:42;;;;;;;6.97;4.77;;;1.50;99.90;;;;;;5045510;28;20429;-68
2023/03/06 00:42:08;;;;;;;9.03;5.30;;;1.50;99.90;;;;;;5044317;28;20492;-69
2023/03/06 00:44:34;;;;;;;9.13;4.57;;;1.50;99.90;;;;;;5040916;28;20257;-68
2023/03/06 00:46:59;;;;;;;5.43;4.93;;;1.50;99.90;;;;;;5046735;28;20193;-68
2023/03/06 00:49:25;;;;;;;7.53;3.93;;;1.40;99.90;;;;;;5044985;28;20432;-68
2023/03/06 00:51:50;;;;;;;6.30;4.37;;;1.30;99.90;;;;;;5045496;28;20181;-68
2023/03/06 00:54:16;;;;;;;6.60;3.57;;;1.30;99.90;;;;;;5038217;28;20178;-69
2023/03/06 00:56:42;;;;;;;4.37;3.40;;;1.30;99.90;;;;;;5045126;28;20252;-69
2023/03/06 00:59:07;;;;;;;5.30;3.20;;;1.30;99.90;;;;;;5044518;28;20680;-68
2023/03/06 01:01:33;;;;;;;9.60;3.90;;;1.30;99.90;;;;;;5044685;28;20175;-69
2023/03/06 01:03:58;;;;;;;4.40;3.97;;;1.30;99.90;;;;;;5045166;28;20171;-69
2023/03/06 01:06:24;;;;;;;3.70;3.10;;;1.30;99.90;;;;;;5037025;28;20274;-68
2023/03/06 01:08:50;;;;;;;6.77;4.57;;;1.30;99.90;;;;;;5049474;28;20206;-68
2023/03/06 01:11:15;;;;;;;4.20;3.43;;;1.20;99.90;;;;;;5043098;28;20229;-70
2023/03/06 01:13:41;;;;;;;3.83;2.93;;;1.30;99.90;;;;;;5045907;28;20202;-68
2023/03/06 01:16:12;;;;;;;11.80;3.93;;;1.40;99.90;;;;;;5045277;28;20565;-68
2023/03/06 01:18:38;;;;;;;4.50;4.03;;;1.40;99.90;;;;;;5041333;28;20200;-69
2023/03/06 01:21:05;;;;;;;3.83;3.17;;;1.30;99.90;;;;;;5041674;28;20410;-68
2023/03/06 01:23:31;;;;;;;4.90;3.50;;;1.30;99.90;;;;;;5044979;28;20459;-68
2023/03/06 01:25:57;;;;;;;5.57;3.67;;;1.30;99.90;;;;;;5032725;28;20414;-68
2023/03/06 01:28:23;;;;;;;5.90;5.10;;;1.30;99.90;;;;;;5036301;28;20431;-68
2023/03/06 01:30:50;;;;;;;4.77;3.40;;;1.30;99.90;;;;;;5045564;28;20418;-67
2023/03/06 01:33:16;;;;;;;5.10;3.83;;;1.30;99.90;;;;;;5041132;28;20925;-68
2023/03/06 01:35:41;;;;;;;5.60;4.00;;;1.30;99.90;;;;;;5036186;28;20434;-69
2023/03/06 01:38:07;;;;;;;7.43;4.67;;;1.30;99.90;;;;;;5049002;28;20272;-68
2023/03/06 01:40:35;;;;;;;6.10;4.07;;;1.30;99.90;;;;;;5041003;28;20196;-68
2023/03/06 01:43:41;;;;;;;6.17;4.80;;;1.30;99.90;;;;;;5041311;28;20414;-68
2023/03/06 01:46:31;;;;;;;5.60;4.13;;;1.40;99.90;;;;;;4957735;28;20414;-68
2023/03/06 01:49:14;;;;;;;4.40;3.90;;;1.40;99.90;;;;;;4965008;28;20444;-70
2023/03/06 01:51:46;;;;;;;6.47;4.50;;;1.40;99.90;;;;;;5025855;28;20467;-69
2023/03/06 01:54:25;;;;;;;4.83;3.80;;;1.40;99.90;;;;;;5043037;28;20414;-69
2023/03/06 01:56:55;;;;;;;6.20;4.60;;;1.40;99.90;;;;;;5045172;28;20419;-68
2023/03/06 01:59:21;;;;;;;6.93;5.33;;;1.40;99.90;;;;;;5041695;28;20429;-68
2023/03/06 02:01:48;;;;;;;5.70;5.10;;;1.50;99.90;;;;;;5045547;28;20402;-68
2023/03/06 02:04:15;;;;;;;5.83;4.93;;;1.50;99.90;;;;;;5035887;28;20438;-69
2023/03/06 02:06:42;;;;;;;7.13;4.40;;;1.50;99.90;;;;;;5046333;28;20467;-70
2023/03/06 02:09:08;;;;;;;5.67;4.97;;;1.50;99.90;;;;;;5044112;28;20484;-68
2023/03/06 02:11:34;;;;;;;8.00;5.27;;;1.60;99.90;;;;;;5033604;28;20398;-68
2023/03/06 02:14:00;;;;;;;5.77;4.90;;;1.60;99.90;;;;;;5046993;28;20417;-68
2023/03/06 02:16:30;;;;;;;6.40;4.93;;;1.60;99.90;;;;;;5040940;28;20163;-68
2023/03/06 02:18:59;;;;;;;6.07;4.90;;;1.70;99.90;;;;;;5046696;28;20511;-69
2023/03/06 02:21:33;;;;;;;8.63;5.90;;;1.70;99.90;;;;;;5041054;28;21157;-68
2023/03/06 02:24:14;;;;;;;11.47;4.93;;;1.70;99.90;;;;;;5030326;28;20405;-70
2023/03/06 02:26:41;;;;;;;7.83;5.23;;;1.70;99.90;;;;;;5037097;28;20410;-68
2023/03/06 02:29:07;;;;;;;5.60;4.93;;;1.80;99.90;;;;;;5040996;28;20525;-68
2023/03/06 02:31:34;;;;;;;8.97;5.90;;;1.80;99.90;;;;;;5046351;28;21032;-69
2023/03/06 02:34:04;;;;;;;7.93;5.60;;;1.80;99.90;;;;;;5040460;28;20939;-69
2023/03/06 02:36:32;;;;;;;7.60;5.10;;;1.90;99.90;;;;;;5033576;28;20494;-67
2023/03/06 02:38:58;;;;;;;7.07;5.20;;;1.90;99.90;;;;;;5039916;28;20462;-68
2023/03/06 02:41:24;;;;;;;8.77;5.17;;;1.90;99.90;;;;;;5043116;28;20499;-68
2023/03/06 02:43:51;;;;;;;8.47;5.67;;;1.90;99.90;;;;;;5042538;28;20406;-68
2023/03/06 02:46:17;;;;;;;6.37;5.67;;;1.90;99.90;;;;;;5042105;28;20904;-68
2023/03/06 02:48:42;;;;;;;6.73;5.10;;;1.90;99.90;;;;;;5045100;28;20441;-68
2023/03/06 02:51:08;;;;;;;7.43;4.60;;;2.00;99.90;;;;;;5022967;28;20179;-67
2023/03/06 02:53:33;;;;;;;7.30;5.77;;;2.00;99.90;;;;;;5047572;28;20207;-67
2023/03/06 02:55:59;;;;;;;5.90;4.90;;;2.00;99.90;;;;;;5040080;28;20168;-68
2023/03/06 02:58:25;;;;;;;15.93;6.13;;;2.00;99.90;;;;;;5042817;28;20202;-69
2023/03/06 03:00:50;;;;;;;4.73;3.67;;;2.00;99.90;;;;;;5025508;28;20195;-68
2023/03/06 03:03:17;;;;;;;7.80;5.53;;;2.00;99.90;;;;;;5061720;22;20544;-63
2023/03/06 03:05:42;;;;;;;8.90;5.67;;;2.00;99.90;;;;;;5051252;28;20175;-63
2023/03/06 03:08:08;;;;;;;5.10;4.60;;;2.10;99.90;;;;;;5058537;28;20472;-65
2023/03/06 03:10:33;;;;;;;5.80;4.37;;;2.10;99.90;;;;;;5061506;28;20633;-62
2023/03/06 03:12:59;;;;;;;8.60;4.60;;;2.10;99.90;;;;;;5061365;28;20676;-62
2023/03/06 03:15:24;;;;;;;5.43;4.20;;;2.20;99.90;;;;;;5058288;28;20167;-61
2023/03/06 03:17:50;;;;;;;4.70;4.30;;;2.20;99.90;;;;;;5061029;28;20202;-63
2023/03/06 03:20:19;;;;;;;6.27;4.70;;;2.20;99.90;;;;;;5059433;28;20223;-62
2023/03/06 03:22:51;;;;;;;4.57;3.97;;;2.20;99.90;;;;;;5062429;28;20633;-63
2023/03/06 03:25:17;;;;;;;4.67;4.13;;;2.30;99.90;;;;;;5059487;28;20431;-63
2023/03/06 03:27:43;;;;;;;4.20;3.37;;;2.30;99.90;;;;;;5056861;28;20420;-62
2023/03/06 03:30:09;;;;;;;4.73;4.10;;;2.30;99.90;;;;;;5060587;28;20891;-64
2023/03/06 03:32:35;;;;;;;3.97;3.60;;;2.30;99.90;;;;;;5039812;28;20540;-64
2023/03/06 03:35:00;;;;;;;5.67;3.87;;;2.30;99.90;;;;;;5063928;28;20423;-62
2023/03/06 03:37:26;;;;;;;7.07;4.40;;;2.40;99.90;;;;;;5059657;28;20592;-62
2023/03/06 03:39:52;;;;;;;6.00;3.70;;;2.40;99.90;;;;;;5064078;28;20990;-61
2023/03/06 03:42:17;;;;;;;4.30;3.57;;;2.40;99.90;;;;;;5053394;28;20205;-63
2023/03/06 03:44:43;;;;;;;4.07;3.67;;;2.40;99.90;;;;;;5058414;28;20164;-64
2023/03/06 03:47:08;;;;;;;5.77;4.23;;;2.40;99.90;;;;;;5063979;28;20190;-62
2023/03/06 03:49:34;;;;;;;7.17;4.07;;;2.40;99.90;;;;;;5058077;28;20544;-61
2023/03/06 03:52:00;;;;;;;3.90;3.07;;;2.40;99.90;;;;;;5064050;28;20209;-63
2023/03/06 03:54:25;;;;;;;7.93;4.33;;;2.50;99.90;;;;;;5058069;28;20260;-62
2023/03/06 03:56:51;;;;;;;6.97;4.63;;;2.50;99.90;;;;;;5057068;28;20179;-63
2023/03/06 03:59:16;;;;;;;10.90;5.17;;;2.40;99.90;;;;;;5063073;28;20170;-63
2023/03/06 04:01:43;;;;;;;9.33;5.30;;;2.40;99.90;;;;;;5057882;28;20575;-63
2023/03/06 04:04:09;;;;;;;6.43;5.87;;;2.40;99.90;;;;;;5063826;28;20175;-62
2023/03/06 04:06:34;;;;;;;5.60;5.20;;;2.40;99.90;;;;;;5057431;28;20409;-63
2023/03/06 04:09:00;;;;;;;6.03;3.77;;;2.30;99.90;;;;;;5064007;28;20179;-62
2023/03/06 04:11:25;;;;;;;4.07;3.30;;;2.20;99.90;;;;;;5057679;28;20202;-65
2023/03/06 04:13:51;;;;;;;3.27;2.97;;;2.10;99.90;;;;;;5057889;28;20183;-60
2023/03/06 04:16:16;;;;;;;3.77;2.77;;;2.00;99.90;;;;;;5063623;28;20214;-61
2023/03/06 04:18:42;;;;;;;5.60;3.17;;;1.90;99.90;;;;;;5057236;28;20191;-63
2023/03/06 04:21:08;;;;;;;2.60;2.40;;;1.90;99.90;;;;;;5064508;28;20183;-64
2023/03/06 04:23:33;;;;;;;2.33;2.10;;;1.80;99.90;;;;;;5057220;28;20261;-62
2023/03/06 04:25:59;;;;;;;2.93;2.70;;;1.80;99.90;;;;;;5046494;28;20163;-62
2023/03/06 04:28:24;;;;;;;2.50;2.30;;;1.80;99.90;;;;;;5059005;28;20616;-64
2023/03/06 04:30:50;;;;;;;2.47;2.27;;;1.80;99.90;;;;;;5060887;28;20189;-67
2023/03/06 04:33:16;;;;;;;2.90;2.70;;;1.70;99.90;;;;;;5066940;28;20688;-62
2023/03/06 04:35:42;;;;;;;2.43;2.23;;;1.70;99.90;;;;;;5060583;28;20497;-63
2023/03/06 04:38:07;;;;;;;2.30;2.10;;;1.70;99.90;;;;;;5067698;28;20202;-62
2023/03/06 04:40:35;;;;;;;2.77;2.40;;;1.60;99.90;;;;;;5060781;28;20163;-62
2023/03/06 04:43:02;;;;;;;2.80;2.30;;;1.60;99.90;;;;;;5068134;28;20201;-61
2023/03/06 04:45:29;;;;;;;2.23;2.00;;;1.60;99.90;;;;;;5065834;28;20409;-60
2023/03/06 04:47:55;;;;;;;4.23;2.20;;;1.60;99.90;;;;;;5060868;28;21036;-60
2023/03/06 04:50:22;;;;;;;2.33;2.00;;;1.50;99.90;;;;;;5060605;28;20420;-64
2023/03/06 04:52:48;;;;;;;2.50;2.30;;;1.60;99.90;;;;;;5060558;28;20760;-59
2023/03/06 04:55:15;;;;;;;2.47;1.67;;;1.50;99.90;;;;;;5060653;28;20404;-62
2023/03/06 04:57:43;;;;;;;4.10;2.40;;;1.50;99.90;;;;;;5060162;28;20187;-63
2023/03/06 05:00:16;;;;;;;1.90;1.77;;;1.50;99.90;;;;;;5068299;28;20918;-63
2023/03/06 05:02:43;;;;;;;2.70;2.50;;;1.50;99.90;;;;;;5060102;28;20449;-63
2023/03/06 05:05:10;;;;;;;3.10;2.27;;;1.40;99.90;;;;;;5061297;28;20421;-63
2023/03/06 05:07:36;;;;;;;3.20;2.90;;;1.40;99.90;;;;;;5065464;28;20454;-62
2023/03/06 05:10:02;;;;;;;2.83;2.10;;;1.40;99.90;;;;;;5060101;28;20432;-62
2023/03/06 05:12:27;;;;;;;3.70;3.30;;;1.50;99.90;;;;;;5063587;28;20233;-63
2023/03/06 05:14:53;;;;;;;2.60;2.40;;;1.50;99.90;;;;;;5063287;28;20470;-62
2023/03/06 05:17:18;;;;;;;4.40;1.90;;;1.40;99.90;;;;;;5036265;28;20275;-63
2023/03/06 05:19:44;;;;;;;2.37;2.17;;;1.50;99.90;;;;;;5063599;28;20601;-62
2023/03/06 05:22:10;;;;;;;3.23;2.37;;;1.50;99.90;;;;;;5062036;28;20595;-63
2023/03/06 05:24:36;;;;;;;2.70;2.50;;;1.40;99.90;;;;;;5063286;28;20175;-63
2023/03/06 05:27:01;;;;;;;2.67;2.30;;;1.40;99.90;;;;;;5063074;28;20222;-63
2023/03/06 05:29:27;;;;;;;3.27;2.63;;;1.40;99.90;;;;;;5063312;28;20436;-63
2023/03/06 05:31:53;;;;;;;2.20;2.00;;;1.30;99.90;;;;;;5062420;28;20195;-63
2023/03/06 05:34:18;;;;;;;2.80;2.60;;;1.30;99.90;;;;;;5061937;28;20194;-63
2023/03/06 05:36:44;;;;;;;3.23;3.03;;;1.30;99.90;;;;;;5063284;28;20416;-63
2023/03/06 05:39:10;;;;;;;2.43;2.23;;;1.20;99.90;;;;;;5060818;28;20202;-64
2023/03/06 05:41:35;;;;;;;2.20;2.00;;;1.20;99.90;;;;;;5062806;28;20577;-62
2023/03/06 05:44:01;;;;;;;3.73;2.77;;;1.20;99.90;;;;;;5062784;28;20178;-63
2023/03/06 05:46:27;;;;;;;2.90;2.70;;;1.20;99.90;;;;;;5062677;28;20174;-63
2023/03/06 05:48:56;;;;;;;3.20;2.70;;;1.20;99.90;;;;;;5061957;28;20511;-62
2023/03/06 05:51:22;;;;;;;3.40;2.33;;;1.20;99.90;;;;;;5062081;28;20190;-65
2023/03/06 05:53:48;;;;;;;2.37;2.00;;;1.10;99.90;;;;;;5062865;28;20417;-62
2023/03/06 05:56:14;;;;;;;2.60;2.30;;;1.20;99.90;;;;;;5061222;28;20471;-62
2023/03/06 05:58:39;;;;;;;3.07;1.93;;;1.20;99.90;;;;;;5062624;28;20456;-62
2023/03/06 06:01:19;;;;;;;2.90;2.70;;;1.20;99.90;;;;;;5062174;28;20535;-63
2023/03/06 06:03:45;;;;;;;4.30;2.53;;;1.20;99.90;;;;;;5062519;28;20240;-62
2023/03/06 06:06:13;;;;;;;3.93;3.23;;;1.10;99.90;;;;;;5060233;28;20463;-63
2023/03/06 06:08:39;;;;;;;3.20;2.90;;;1.20;99.90;;;;;;5062759;28;20455;-61
2023/03/06 06:11:06;;;;;;;2.97;2.67;;;1.20;99.90;;;;;;5062034;28;20423;-61
2023/03/06 06:13:33;;;;;;;2.90;2.70;;;1.20;99.90;;;;;;5059014;28;20532;-64
2023/03/06 06:15:58;;;;;;;3.17;2.87;;;1.30;99.90;;;;;;5064758;28;20902;-64
2023/03/06 06:18:24;;;;;;;3.87;3.23;;;1.30;99.90;;;;;;5059309;28;20445;-64
2023/03/06 06:20:50;;;;;;;2.80;2.23;;;1.30;99.90;;;;;;5064202;28;20182;-65
2023/03/06 06:23:16;;;;;;;2.83;2.53;;;1.30;99.90;;;;;;5060284;28;20205;-65
2023/03/06 06:25:41;;;;;;;2.00;1.80;;;1.30;99.90;;;;;;5060787;28;20723;-62
2023/03/06 06:28:07;;;;;;;3.60;3.00;;;1.30;99.90;;;;;;5067394;28;20421;-61
2023/03/06 06:30:32;;;;;;;2.40;2.20;;;1.20;99.90;;;;;;5059602;28;20637;-63
2023/03/06 06:32:58;;;;;;;5.17;2.70;;;1.30;99.90;;;;;;5064665;28;20277;-64
2023/03/06 06:35:24;;;;;;;2.30;2.10;;;1.20;99.90;;;;;;5059511;28;20516;-62
2023/03/06 06:37:50;;;;;;;2.97;2.63;;;1.20;99.90;;;;;;5064119;28;20194;-63
2023/03/06 06:40:16;;;;;;;2.47;1.73;;;1.10;99.90;;;;;;5061986;28;20570;-60
2023/03/06 06:42:42;;;;;;;2.20;2.00;;;1.10;99.90;;;;;;5063769;28;20676;-64
2023/03/06 06:45:09;;;;;;;3.77;2.80;;;1.10;99.90;;;;;;5062128;28;20455;-62
2023/03/06 06:47:39;;;;;;;2.30;1.90;;;1.20;99.90;;;;;;5058705;28;20599;-62
2023/03/06 06:50:06;;;;;;;2.00;1.87;;;1.20;99.90;;;;;;5065873;28;20456;-62
2023/03/06 06:52:32;;;;;;;2.43;2.10;;;1.10;99.90;;;;;;5058323;28;20575;-64
2023/03/06 06:54:57;;;;;;;3.23;1.90;;;1.10;99.90;;;;;;5064793;28;20448;-62
2023/03/06 06:57:23;;;;;;;2.43;2.10;;;1.10;99.90;;;;;;5059807;28;20257;-62
2023/03/06 06:59:48;;;;;;;2.97;1.87;;;1.20;99.90;;;;;;5064105;28;20170;-64
2023/03/06 07:02:15;;;;;;;2.70;2.30;;;1.20;99.90;;;;;;5053407;28;20779;-62
2023/03/06 07:04:41;;;;;;;2.67;2.33;;;1.20;99.90;;;;;;5059018;28;20258;-64
2023/03/06 07:07:07;;;;;;;2.63;1.83;;;1.20;99.90;;;;;;5064422;28;20459;-63
2023/03/06 07:09:33;;;;;;;3.13;2.83;;;1.30;99.90;;;;;;5058235;28;20433;-63
2023/03/06 07:11:58;;;;;;;1.77;1.67;;;1.30;99.90;;;;;;5058214;28;20270;-64
2023/03/06 07:14:24;;;;;;;3.40;2.47;;;1.30;99.90;;;;;;5061319;28;20185;-63
2023/03/06 07:16:50;;;;;;;5.17;2.30;;;1.40;99.90;;;;;;5061214;28;20333;-62
2023/03/06 07:19:15;;;;;;;1.80;1.70;;;1.30;99.90;;;;;;5059767;28;20218;-61
2023/03/06 07:21:41;;;;;;;2.00;1.87;;;1.20;99.90;;;;;;5063333;28;20194;-62
2023/03/06 07:24:07;;;;;;;1.97;1.80;;;1.20;99.90;;;;;;5059315;28;20181;-59
2023/03/06 07:26:33;;;;;;;2.20;2.00;;;1.10;99.90;;;;;;5065541;28;20186;-61
2023/03/06 07:28:58;;;;;;;2.47;1.97;;;1.10;99.90;;;;;;5058649;28;20417;-59
2023/03/06 07:31:26;;;;;;;3.07;2.33;;;1.10;99.90;;;;;;5053569;28;20423;-60
2023/03/06 07:33:53;;;;;;;2.30;1.73;;;1.20;99.90;;;;;;5052985;28;20171;-62
2023/03/06 07:36:19;;;;;;;3.83;2.40;;;1.20;99.90;;;;;;5059456;28;20533;-62
2023/03/06 07:38:45;;;;;;;2.70;2.03;;;1.20;99.90;;;;;;5061769;28;20535;-60
2023/03/06 07:41:12;;;;;;;6.00;2.23;;;1.20;99.90;;;;;;5058426;28;20798;-62
2023/03/06 07:43:42;;;;;;;5.00;2.30;;;1.20;99.90;;;;;;5064038;28;20602;-63
2023/03/06 07:46:09;;;;;;;3.50;2.57;;;1.30;99.90;;;;;;5055450;28;20425;-63
2023/03/06 07:48:36;;;;;;;2.80;2.60;;;1.40;99.90;;;;;;5058175;28;20506;-62
2023/03/06 07:51:05;;;;;;;5.87;2.20;;;1.40;99.90;;;;;;5058709;28;20512;-62
2023/03/06 07:53:31;;;;;;;4.70;2.37;;;1.60;99.90;;;;;;5054523;28;20747;-63
2023/03/06 07:55:57;;;;;;;2.17;1.97;;;1.60;99.90;;;;;;5060735;28;20812;-63
2023/03/06 07:58:23;;;;;;;2.30;1.90;;;1.60;99.90;;;;;;5042018;28;20551;-62
2023/03/06 08:00:49;;;;;;;2.30;1.90;;;1.60;99.90;;;;;;5062551;28;20664;-60
2023/03/06 08:03:15;;;;;;;4.13;1.83;;;1.60;99.90;;;;;;5060040;28;20289;-62
2023/03/06 08:05:41;;;;;;;3.00;2.70;;;1.70;99.90;;;;;;5063543;28;20623;-60
2023/03/06 08:08:07;;;;;;;2.90;2.70;;;1.70;99.90;;;;;;5062451;28;20900;-63
2023/03/06 08:10:33;;;;;;;6.43;2.83;;;1.70;99.90;;;;;;5064320;28;20415;-62
2023/03/06 08:12:58;;;;;;;2.30;2.03;;;1.80;99.90;;;;;;5064503;28;20448;-63
2023/03/06 08:15:25;;;;;;;2.03;1.77;;;1.90;99.90;;;;;;5062060;28;20665;-63
2023/03/06 08:17:51;;;;;;;2.77;2.50;;;2.00;99.90;;;;;;5064460;28;20612;-63
2023/03/06 08:20:17;;;;;;;2.80;2.40;;;2.30;99.90;;;;;;5063289;28;20463;-62
2023/03/06 08:22:44;;;;;;;2.40;1.63;;;1.90;99.90;;;;;;5067633;28;20431;-64
2023/03/06 08:25:12;;;;;;;2.13;1.63;;;1.60;99.90;;;;;;5063612;28;20188;-62
2023/03/06 08:27:38;;;;;;;1.60;1.50;;;1.60;99.90;;;;;;5064290;28;20475;-63
2023/03/06 08:30:05;;;;;;;3.13;2.40;;;1.60;99.90;;;;;;5063786;28;20448;-62
2023/03/06 08:32:30;;;;;;;2.00;1.80;;;1.60;99.90;;;;;;5062459;28;20906;-63
2023/03/06 08:34:56;;;;;;;1.83;1.73;;;1.70;99.90;;;;;;5064085;28;20408;-60
2023/03/06 08:37:21;;;;;;;4.43;2.40;;;2.00;99.90;;;;;;5062549;28;20269;-62
2023/03/06 08:39:47;;;;;;;3.60;2.63;;;2.10;99.90;;;;;;5064161;28;20202;-63
2023/03/06 08:42:13;;;;;;;2.67;1.80;;;2.00;99.90;;;;;;5063550;28;20212;-63
2023/03/06 08:44:39;;;;;;;3.03;2.37;;;2.40;99.90;;;;;;5057167;28;20167;-63
2023/03/06 08:47:04;;;;;;;2.47;1.80;;;2.40;99.90;;;;;;5060160;28;20413;-63
2023/03/06 08:49:30;;;;;;;2.17;2.00;;;2.60;99.90;;;;;;5062032;28;20178;-62
2023/03/06 08:51:55;;;;;;;1.97;1.77;;;3.10;99.90;;;;;;5063668;28;20209;-65
2023/03/06 08:54:21;;;;;;;2.00;1.90;;;2.60;99.90;;;;;;5044117;28;20175;-63
2023/03/06 08:56:47;;;;;;;2.03;1.67;;;2.90;99.90;;;;;;5063584;28;20175;-63
2023/03/06 08:59:12;;;;;;;3.57;1.80;;;3.10;99.90;;;;;;5062815;28;20214;-62
2023/03/06 09:01:38;;;;;;;4.83;1.80;;;2.60;99.90;;;;;;5063530;28;20289;-63
2023/03/06 09:04:07;;;;;;;2.37;2.17;;;2.30;99.90;;;;;;5053105;28;20183;-65
2023/03/06 09:06:35;;;;;;;1.77;1.67;;;2.60;99.90;;;;;;5053265;28;20201;-63
2023/03/06 09:09:03;;;;;;;2.10;1.90;;;2.50;99.90;;;;;;5055087;28;20445;-62
2023/03/06 09:11:29;;;;;;;3.20;2.00;;;2.50;99.90;;;;;;5035863;28;20508;-63
2023/03/06 09:13:55;;;;;;;1.63;1.53;;;2.90;99.90;;;;;;5059654;28;20782;-63
2023/03/06 09:16:21;;;;;;;3.67;2.10;;;2.80;99.90;;;;;;5065807;28;20448;-63
2023/03/06 09:18:49;;;;;;;1.53;1.43;;;3.30;99.90;;;;;;5059683;28;20460;-63
2023/03/06 09:21:15;;;;;;;4.93;2.47;;;3.30;99.90;;;;;;5066815;28;20407;-63
2023/03/06 09:23:40;;;;;;;2.87;2.37;;;2.90;99.90;;;;;;5078242;22;20478;-69
2023/03/06 09:26:07;;;;;;;4.37;2.33;;;3.10;99.90;;;;;;5020131;28;20176;-70
2023/03/06 09:28:35;;;;;;;2.43;2.17;;;3.30;99.90;;;;;;5037446;28;20198;-71
2023/03/06 09:31:05;;;;;;;3.40;1.73;;;3.00;99.90;;;;;;5045066;28;20422;-69
2023/03/06 09:33:32;;;;;;;2.90;2.60;;;3.00;99.90;;;;;;5036764;28;20876;-70
2023/03/06 09:35:58;;;;;;;4.63;1.77;;;3.20;99.90;;;;;;5044477;28;20449;-71
2023/03/06 09:38:26;;;;;;;1.90;1.80;;;3.40;99.90;;;;;;5044202;28;20492;-68
2023/03/06 09:40:58;;;;;;;1.90;1.80;;;2.90;99.90;;;;;;5046020;28;20915;-70
2023/03/06 09:43:35;;;;;;;7.00;2.20;;;3.00;99.90;;;;;;5044324;28;20504;-71
2023/03/06 09:46:12;;;;;;;2.80;1.80;;;3.00;99.90;;;;;;5043530;28;20402;-69
2023/03/06 09:48:56;;;;;;;1.93;1.83;;;2.70;99.90;;;;;;5025570;28;20412;-69
2023/03/06 09:51:29;;;;;;;8.60;1.63;;;2.60;99.90;;;;;;5044031;28;20417;-70
2023/03/06 09:54:03;;;;;;;1.67;1.43;;;2.80;99.90;;;;;;5044748;28;20429;-70
2023/03/06 09:56:33;;;;;;;4.50;1.83;;;2.90;99.90;;;;;;5034421;28;20412;-71
2023/03/06 09:59:13;;;;;;;5.10;1.77;;;3.00;99.90;;;;;;5044753;28;20456;-71
2023/03/06 10:01:42;;;;;;;4.00;2.17;;;2.60;99.90;;;;;;5038904;28;20417;-69
2023/03/06 10:04:31;;;;;;;8.50;1.80;;;2.80;99.90;;;;;;5041506;28;20908;-73
2023/03/06 10:07:05;;;;;;;1.43;1.33;;;2.60;99.90;;;;;;5040932;28;20814;-71
2023/03/06 10:09:49;;;;;;;1.93;1.10;;;2.50;99.90;;;;;;5035514;28;20460;-70
2023/03/06 10:12:28;;;;;;;1.27;1.17;;;2.70;99.90;;;;;;5039000;28;20416;-70
2023/03/06 10:15:24;;;;;;;2.70;2.00;;;2.70;99.90;;;;;;5032729;28;20438;-70
2023/03/06 10:17:50;;;;;;;2.97;2.53;;;2.70;99.90;;;;;;5037777;28;20535;-70
2023/03/06 10:20:21;;;;;;;4.73;4.20;;;2.70;99.90;;;;;;5041240;28;20438;-71
2023/03/06 10:23:33;;;;;;;3.50;2.83;;;2.90;99.90;;;;;;5043465;28;20171;-70
2023/03/06 10:26:01;;;;;;;3.37;2.57;;;2.80;99.90;;;;;;5040196;28;20429;-69
2023/03/06 10:28:51;;;;;;;3.40;3.10;;;2.70;99.90;;;;;;5038205;28;20398;-71
2023/03/06 10:31:24;;;;;;;2.80;2.50;;;2.70;99.90;;;;;;5039969;28;20931;-70
2023/03/06 10:33:52;;;;;;;3.27;2.10;;;2.50;99.90;;;;;;5041654;28;20765;-71
2023/03/06 10:36:20;;;;;;;2.50;2.30;;;2.60;99.90;;;;;;5041832;28;20742;-70
2023/03/06 10:38:47;;;;;;;4.87;3.43;;;2.80;99.90;;;;;;5046556;28;20453;-71
2023/03/06 10:41:12;;;;;;;6.93;2.90;;;2.60;99.90;;;;;;5037949;28;20434;-70
2023/03/06 10:43:44;;;;;;;4.77;3.63;;;2.60;99.90;;;;;;5043740;28;20464;-71
2023/03/06 10:46:13;;;;;;;4.70;4.30;;;2.80;99.90;;;;;;5041261;28;20233;-70
2023/03/06 10:48:40;;;;;;;4.73;4.33;;;2.70;99.90;;;;;;5032707;28;20445;-70
2023/03/06 10:51:24;;;;;;;4.90;4.33;;;2.90;99.90;;;;;;5037274;28;20415;-71
2023/03/06 10:54:12;;;;;;;4.37;4.00;;;2.90;99.90;;;;;;5017012;28;20441;-70
2023/03/06 10:56:40;;;;;;;9.53;5.00;;;2.90;99.90;;;;;;5037166;28;20454;-69
2023/03/06 10:59:17;;;;;;;4.30;3.97;;;3.10;99.90;;;;;;5043816;28;20449;-70
2023/03/06 11:01:47;;;;;;;4.33;3.17;;;2.90;99.90;;;;;;5033179;28;20398;-71
2023/03/06 11:04:26;;;;;;;2.83;2.53;;;3.10;99.90;;;;;;5027375;28;20428;-68
2023/03/06 11:07:04;;;;;;;1.80;1.60;;;3.10;99.90;;;;;;5035580;28;20421;-73
2023/03/06 11:09:32;;;;;;;3.67;2.23;;;3.00;99.90;;;;;;5029548;28;20410;-72
2023/03/06 11:12:22;;;;;;;3.60;2.80;;;3.10;99.90;;;;;;5031946;28;20408;-73
2023/03/06 11:15:19;;;;;;;3.33;2.27;;;3.20;99.90;;;;;;5029646;28;20870;-72
2023/03/06 11:17:57;;;;;;;2.23;2.00;;;3.20;99.90;;;;;;5032852;28;20453;-71
2023/03/06 11:20:46;;;;;;;3.40;2.57;;;3.20;99.90;;;;;;5042571;28;20774;-72
2023/03/06 11:23:22;;;;;;;2.40;1.70;;;3.10;99.90;;;;;;5035153;28;20410;-71
2023/03/06 11:25:56;;;;;;;2.40;2.07;;;3.00;99.90;;;;;;5040705;28;20976;-72
2023/03/06 11:28:35;;;;;;;4.00;2.50;;;3.10;99.90;;;;;;5041200;28;20485;-71
2023/03/06 11:31:08;;;;;;;3.97;3.23;;;3.30;99.90;;;;;;5039675;28;20433;-72
2023/03/06 11:33:51;;;;;;;3.40;2.60;;;3.50;99.90;;;;;;5037184;28;20468;-70
2023/03/06 11:36:40;;;;;;;2.70;2.30;;;3.70;99.90;;;;;;5038243;28;20930;-70
2023/03/06 11:39:18;;;;;;;2.13;1.93;;;3.80;99.90;;;;;;5042557;28;20484;-70
2023/03/06 11:41:48;;;;;;;2.73;2.53;;;3.40;99.90;;;;;;5039344;28;20941;-70
2023/03/06 11:44:35;;;;;;;2.90;2.17;;;3.30;99.90;;;;;;5045476;28;20418;-70
2023/03/06 11:47:10;;;;;;;3.17;2.87;;;3.20;99.90;;;;;;5047413;28;20433;-70
2023/03/06 11:49:43;;;;;;;3.13;2.77;;;3.30;99.90;;;;;;5039523;28;20409;-71
2023/03/06 11:52:36;;;;;;;3.40;3.10;;;3.70;99.90;;;;;;5046503;28;20405;-71
2023/03/06 11:55:02;;;;;;;3.40;2.77;;;3.40;99.90;;;;;;5029642;28;20505;-70
2023/03/06 11:57:45;;;;;;;2.93;2.73;;;3.30;99.90;;;;;;5043886;28;20489;-70
2023/03/06 12:00:27;;;;;;;2.20;2.00;;;3.50;99.90;;;;;;5039238;28;20168;-70
2023/03/06 12:03:19;;;;;;;4.40;2.50;;;3.60;99.90;;;;;;5046026;28;20410;-70
2023/03/06 12:06:03;;;;;;;3.10;2.17;;;3.80;99.90;;;;;;5038589;28;20907;-68
2023/03/06 12:08:54;;;;;;;4.53;3.10;;;4.30;99.90;;;;;;5032499;28;20398;-69
2023/03/06 12:11:44;;;;;;;2.47;2.27;;;4.00;99.90;;;;;;5035484;28;20779;-70
2023/03/06 12:14:35;;;;;;;6.00;2.70;;;4.10;99.90;;;;;;5047674;28;20429;-69
2023/03/06 12:17:09;;;;;;;3.93;2.80;;;3.70;99.90;;;;;;5044908;28;20498;-70
2023/03/06 12:19:53;;;;;;;4.33;3.80;;;3.90;99.90;;;;;;5041756;28;20707;-69
2023/03/06 12:22:38;;;;;;;4.53;2.67;;;3.70;99.90;;;;;;5048589;28;20410;-70
2023/03/06 12:25:20;;;;;;;4.70;2.53;;;3.60;99.90;;;;;;5036296;28;20441;-70
2023/03/06 12:27:56;;;;;;;2.57;2.23;;;3.70;99.90;;;;;;5040395;28;20414;-69
2023/03/06 12:30:57;;;;;;;5.07;2.37;;;3.30;99.90;;;;;;5040399;28;20406;-69
2023/03/06 12:33:50;;;;;;;2.27;1.80;;;3.40;99.90;;;;;;4996859;28;20421;-71
2023/03/06 12:36:41;;;;;;;2.37;2.17;;;3.70;99.90;;;;;;5043529;28;20926;-71
2023/03/06 12:39:16;;;;;;;4.70;2.37;;;4.00;99.90;;;;;;5045459;28;20970;-70
2023/03/06 12:41:58;;;;;;;8.53;2.07;;;3.60;99.90;;;;;;5047789;28;20778;-69
2023/03/06 12:44:33;;;;;;;2.57;2.20;;;3.60;99.90;;;;;;5034857;28;20940;-70
2023/03/06 12:47:08;;;;;;;4.00;2.27;;;3.90;99.90;;;;;;5042424;28;20448;-69
2023/03/06 12:49:37;;;;;;;2.37;1.50;;;4.40;99.90;;;;;;5033119;28;20430;-69
2023/03/06 12:52:09;;;;;;;1.57;1.47;;;4.40;99.90;;;;;;5047612;28;20468;-70
2023/03/06 12:54:40;;;;;;;2.87;2.10;;;4.70;99.90;;;;;;5037768;28;20437;-68
2023/03/06 12:57:08;;;;;;;2.50;1.70;;;4.40;99.90;;;;;;5037203;28;20421;-68
2023/03/06 12:59:37;;;;;;;1.53;1.43;;;4.30;99.90;;;;;;5042170;28;20423;-70
2023/03/06 13:02:21;;;;;;;3.53;1.93;;;4.60;99.90;;;;;;5041209;28;20824;-71
2023/03/06 13:05:08;;;;;;;4.33;1.60;;;4.30;99.90;;;;;;5043610;28;20512;-69
2023/03/06 13:07:49;;;;;;;1.83;1.53;;;4.40;99.90;;;;;;5035482;28;20533;-70
2023/03/06 13:10:25;;;;;;;2.17;1.30;;;4.70;99.90;;;;;;5036491;28;20419;-69